TSC863 KLAS-CYVR
Flight info
| Callsign | TSC863 |
|---|---|
| Flight time | 2h 27m |
| Altitude | 36000 |
| Route | JOHKR5 KENNO DCT OAL J92 FMG J5 SEA DCT PAE GRIZZ9 |
| Aircraft | A321/M-SDE3FGHIRWY/LB1 |
Departure
| Time | 2026-05-05 14:49 |
|---|---|
| Airport | Harry Reid International Airport (KLAS) |
Arrival
| Time | 2026-05-05 17:16 |
|---|---|
| Airport | Vancouver International Airport (CYVR) |
| Time | Latitude | Longitude | Altitude | Speed | Heading |
|---|---|---|---|---|---|
| 2026-05-05 14:26 | 36.08529 | -115.13846 | 2188 ft | 0 kts | 0° |
| 2026-05-05 14:38 | 36.08524 | -115.13846 | 2188 ft | 3 kts | 1° |
| 2026-05-05 14:39 | 36.08505 | -115.13848 | 2191 ft | 3 kts | 13° |
| 2026-05-05 14:39 | 36.08486 | -115.13855 | 2192 ft | 3 kts | 31° |
| 2026-05-05 14:39 | 36.08471 | -115.13869 | 2190 ft | 3 kts | 60° |
| 2026-05-05 14:39 | 36.08465 | -115.13888 | 2189 ft | 1 kts | 90° |
| 2026-05-05 14:40 | 36.08465 | -115.13893 | 2189 ft | 0 kts | 90° |
| 2026-05-05 14:42 | 36.08465 | -115.13892 | 2189 ft | 1 kts | 90° |
| 2026-05-05 14:42 | 36.08465 | -115.13840 | 2192 ft | 9 kts | 90° |
| 2026-05-05 14:42 | 36.08466 | -115.13769 | 2190 ft | 8 kts | 89° |
| 2026-05-05 14:42 | 36.08465 | -115.13709 | 2191 ft | 6 kts | 90° |
| 2026-05-05 14:43 | 36.08465 | -115.13658 | 2191 ft | 5 kts | 90° |
| 2026-05-05 14:43 | 36.08465 | -115.13595 | 2190 ft | 11 kts | 90° |
| 2026-05-05 14:43 | 36.08465 | -115.13496 | 2191 ft | 11 kts | 90° |
| 2026-05-05 14:43 | 36.08437 | -115.13420 | 2190 ft | 9 kts | 134° |
| 2026-05-05 14:44 | 36.08374 | -115.13344 | 2191 ft | 19 kts | 136° |
| 2026-05-05 14:44 | 36.08257 | -115.13294 | 2190 ft | 17 kts | 176° |
| 2026-05-05 14:44 | 36.08134 | -115.13291 | 2188 ft | 20 kts | 180° |
| 2026-05-05 14:44 | 36.07992 | -115.13291 | 2189 ft | 20 kts | 180° |
| 2026-05-05 14:45 | 36.07859 | -115.13285 | 2191 ft | 18 kts | 162° |
| 2026-05-05 14:45 | 36.07828 | -115.13168 | 2192 ft | 14 kts | 89° |
| 2026-05-05 14:45 | 36.07829 | -115.13025 | 2188 ft | 21 kts | 90° |
| 2026-05-05 14:45 | 36.07838 | -115.12845 | 2188 ft | 20 kts | 73° |
| 2026-05-05 14:46 | 36.07830 | -115.12685 | 2188 ft | 18 kts | 94° |
| 2026-05-05 14:46 | 36.07842 | -115.12567 | 2191 ft | 12 kts | 111° |
| 2026-05-05 14:46 | 36.07827 | -115.12473 | 2189 ft | 10 kts | 91° |
| 2026-05-05 14:46 | 36.07830 | -115.12384 | 2188 ft | 14 kts | 92° |
| 2026-05-05 14:47 | 36.07804 | -115.12226 | 2189 ft | 20 kts | 123° |
| 2026-05-05 14:47 | 36.07732 | -115.12134 | 2189 ft | 15 kts | 154° |
| 2026-05-05 14:47 | 36.07649 | -115.12142 | 2191 ft | 4 kts | 242° |
| 2026-05-05 14:47 | 36.07642 | -115.12197 | 2190 ft | 9 kts | 268° |
| 2026-05-05 14:48 | 36.07641 | -115.12315 | 2192 ft | 30 kts | 269° |
| 2026-05-05 14:48 | 36.07635 | -115.12885 | 2188 ft | 100 kts | 271° |
| 2026-05-05 14:48 | 36.07639 | -115.13973 | 2192 ft | 151 kts | 270° |
| 2026-05-05 14:48 | 36.07638 | -115.15438 | 2314 ft | 179 kts | 269° |
| 2026-05-05 14:49 | 36.07629 | -115.16913 | 3040 ft | 173 kts | 268° |
| 2026-05-05 14:49 | 36.07622 | -115.18498 | 3309 ft | 194 kts | 267° |
| 2026-05-05 14:49 | 36.07617 | -115.20262 | 3476 ft | 217 kts | 267° |
| 2026-05-05 14:49 | 36.07405 | -115.22204 | 3768 ft | 238 kts | 258° |
| 2026-05-05 14:50 | 36.07072 | -115.24229 | 4487 ft | 242 kts | 250° |
| 2026-05-05 14:50 | 36.06176 | -115.25969 | 5166 ft | 247 kts | 222° |
| 2026-05-05 14:50 | 36.04614 | -115.26988 | 5577 ft | 263 kts | 199° |
| 2026-05-05 14:50 | 36.02870 | -115.27749 | 6284 ft | 268 kts | 199° |
| 2026-05-05 14:51 | 36.01101 | -115.28539 | 7046 ft | 271 kts | 199° |
| 2026-05-05 14:51 | 35.99326 | -115.29357 | 7838 ft | 274 kts | 202° |
| 2026-05-05 14:51 | 35.97615 | -115.30431 | 8599 ft | 278 kts | 207° |
| 2026-05-05 14:51 | 35.95902 | -115.31555 | 9379 ft | 280 kts | 207° |
| 2026-05-05 14:52 | 35.94168 | -115.32691 | 10111 ft | 283 kts | 207° |
| 2026-05-05 14:52 | 35.92417 | -115.33838 | 10800 ft | 287 kts | 207° |
| 2026-05-05 14:52 | 35.90716 | -115.35148 | 11464 ft | 291 kts | 220° |
| 2026-05-05 14:52 | 35.89406 | -115.37069 | 12125 ft | 297 kts | 239° |
| 2026-05-05 14:53 | 35.88665 | -115.39463 | 12780 ft | 304 kts | 258° |
| 2026-05-05 14:53 | 35.88566 | -115.42083 | 13466 ft | 309 kts | 270° |
| 2026-05-05 14:53 | 35.88633 | -115.44743 | 14108 ft | 312 kts | 270° |
| 2026-05-05 14:53 | 35.88692 | -115.47197 | 14703 ft | 314 kts | 270° |
| 2026-05-05 14:54 | 35.88751 | -115.49899 | 15345 ft | 316 kts | 271° |
| 2026-05-05 14:54 | 35.88806 | -115.52615 | 15995 ft | 318 kts | 270° |
| 2026-05-05 14:54 | 35.88858 | -115.55344 | 16654 ft | 320 kts | 271° |
| 2026-05-05 14:54 | 35.88912 | -115.58124 | 17002 ft | 333 kts | 271° |
| 2026-05-05 14:55 | 35.88969 | -115.61059 | 17138 ft | 351 kts | 271° |
| 2026-05-05 14:55 | 35.89027 | -115.64139 | 17273 ft | 368 kts | 271° |
| 2026-05-05 14:55 | 35.89085 | -115.67360 | 17540 ft | 380 kts | 271° |
| 2026-05-05 14:55 | 35.89142 | -115.70644 | 18050 ft | 385 kts | 271° |
| 2026-05-05 14:56 | 35.89200 | -115.73948 | 18557 ft | 387 kts | 271° |
| 2026-05-05 14:56 | 35.89261 | -115.77282 | 18935 ft | 386 kts | 272° |
| 2026-05-05 14:56 | 35.89321 | -115.80567 | 19753 ft | 381 kts | 272° |
| 2026-05-05 14:56 | 35.89379 | -115.83783 | 20344 ft | 381 kts | 271° |
| 2026-05-05 14:57 | 35.89437 | -115.87100 | 20814 ft | 384 kts | 271° |
| 2026-05-05 14:57 | 35.89748 | -115.90394 | 21201 ft | 390 kts | 281° |
| 2026-05-05 14:57 | 35.90598 | -115.93590 | 21551 ft | 399 kts | 291° |
| 2026-05-05 14:57 | 35.92005 | -115.96599 | 21848 ft | 409 kts | 303° |
| 2026-05-05 14:58 | 35.93914 | -115.99241 | 22233 ft | 417 kts | 312° |
| 2026-05-05 14:58 | 35.95982 | -116.01769 | 22645 ft | 420 kts | 312° |
| 2026-05-05 14:58 | 35.98056 | -116.04320 | 23055 ft | 423 kts | 311° |
| 2026-05-05 14:58 | 36.00143 | -116.06900 | 23451 ft | 425 kts | 311° |
| 2026-05-05 14:59 | 36.02234 | -116.09491 | 23842 ft | 428 kts | 311° |
| 2026-05-05 14:59 | 36.04345 | -116.12105 | 24239 ft | 431 kts | 311° |
| 2026-05-05 14:59 | 36.06467 | -116.14731 | 24627 ft | 433 kts | 311° |
| 2026-05-05 14:59 | 36.08605 | -116.17377 | 25028 ft | 436 kts | 311° |
| 2026-05-05 15:00 | 36.10745 | -116.20034 | 25404 ft | 438 kts | 311° |
| 2026-05-05 15:00 | 36.12172 | -116.21808 | 25648 ft | 439 kts | 310° |
| 2026-05-05 15:00 | 36.15069 | -116.25407 | 26145 ft | 442 kts | 310° |
| 2026-05-05 15:00 | 36.17243 | -116.28110 | 26501 ft | 444 kts | 310° |
| 2026-05-05 15:01 | 36.19425 | -116.30823 | 26868 ft | 446 kts | 310° |
| 2026-05-05 15:01 | 36.21568 | -116.33492 | 27182 ft | 448 kts | 310° |
| 2026-05-05 15:01 | 36.23824 | -116.36309 | 27513 ft | 450 kts | 310° |
| 2026-05-05 15:01 | 36.26031 | -116.39065 | 27836 ft | 452 kts | 310° |
| 2026-05-05 15:02 | 36.28252 | -116.41835 | 28137 ft | 454 kts | 310° |
| 2026-05-05 15:02 | 36.30508 | -116.44600 | 28446 ft | 456 kts | 311° |
| 2026-05-05 15:02 | 36.32798 | -116.47333 | 28735 ft | 458 kts | 312° |
| 2026-05-05 15:02 | 36.35120 | -116.50064 | 29020 ft | 460 kts | 312° |
| 2026-05-05 15:03 | 36.37454 | -116.52798 | 29315 ft | 462 kts | 312° |
| 2026-05-05 15:03 | 36.39792 | -116.55549 | 29577 ft | 464 kts | 312° |
| 2026-05-05 15:03 | 36.42130 | -116.58320 | 29881 ft | 465 kts | 312° |
| 2026-05-05 15:03 | 36.44455 | -116.61091 | 30246 ft | 463 kts | 312° |
| 2026-05-05 15:04 | 36.46791 | -116.63842 | 30616 ft | 463 kts | 313° |
| 2026-05-05 15:04 | 36.49155 | -116.66559 | 30968 ft | 462 kts | 314° |
| 2026-05-05 15:04 | 36.51534 | -116.69247 | 31317 ft | 462 kts | 314° |
| 2026-05-05 15:04 | 36.53918 | -116.71922 | 31661 ft | 462 kts | 314° |
| 2026-05-05 15:05 | 36.58678 | -116.77277 | 32337 ft | 461 kts | 314° |
| 2026-05-05 15:05 | 36.61015 | -116.79928 | 32662 ft | 460 kts | 314° |
| 2026-05-05 15:05 | 36.63405 | -116.82651 | 32997 ft | 460 kts | 313° |
| 2026-05-05 15:06 | 36.65706 | -116.85284 | 33304 ft | 460 kts | 313° |
| 2026-05-05 15:06 | 36.68078 | -116.88007 | 33627 ft | 459 kts | 313° |
| 2026-05-05 15:06 | 36.70425 | -116.90701 | 33952 ft | 459 kts | 313° |
| 2026-05-05 15:06 | 36.72814 | -116.93343 | 34247 ft | 461 kts | 318° |
| 2026-05-05 15:07 | 36.75477 | -116.95588 | 34527 ft | 465 kts | 327° |
| 2026-05-05 15:07 | 36.78352 | -116.97466 | 34793 ft | 466 kts | 329° |
| 2026-05-05 15:07 | 36.81228 | -116.99318 | 35072 ft | 466 kts | 329° |
| 2026-05-05 15:07 | 36.84109 | -117.01176 | 35333 ft | 466 kts | 329° |
| 2026-05-05 15:08 | 36.86985 | -117.03035 | 35586 ft | 465 kts | 329° |
| 2026-05-05 15:08 | 36.89855 | -117.04897 | 35847 ft | 465 kts | 329° |
| 2026-05-05 15:08 | 36.92733 | -117.06772 | 35960 ft | 465 kts | 329° |
| 2026-05-05 15:09 | 36.98443 | -117.10496 | 35970 ft | 462 kts | 329° |
| 2026-05-05 15:09 | 37.04141 | -117.14214 | 35970 ft | 461 kts | 329° |
| 2026-05-05 15:10 | 37.09821 | -117.17931 | 35971 ft | 461 kts | 330° |
| 2026-05-05 15:10 | 37.15502 | -117.21639 | 35971 ft | 460 kts | 330° |
| 2026-05-05 15:11 | 37.21171 | -117.25346 | 35980 ft | 460 kts | 330° |
| 2026-05-05 15:11 | 37.26837 | -117.29061 | 35985 ft | 459 kts | 330° |
| 2026-05-05 15:12 | 37.32503 | -117.32771 | 36005 ft | 458 kts | 331° |
| 2026-05-05 15:12 | 37.37906 | -117.36261 | 36001 ft | 452 kts | 333° |
| 2026-05-05 15:13 | 37.43489 | -117.39865 | 35984 ft | 448 kts | 334° |
| 2026-05-05 15:13 | 37.49016 | -117.43451 | 35979 ft | 446 kts | 335° |
| 2026-05-05 15:14 | 37.54527 | -117.47034 | 35980 ft | 445 kts | 335° |
| 2026-05-05 15:14 | 37.60025 | -117.50618 | 35991 ft | 445 kts | 335° |
| 2026-05-05 15:15 | 37.65522 | -117.54200 | 35992 ft | 444 kts | 335° |
| 2026-05-05 15:15 | 37.71011 | -117.57789 | 35993 ft | 444 kts | 335° |
| 2026-05-05 15:16 | 37.75562 | -117.60771 | 35991 ft | 443 kts | 335° |
| 2026-05-05 15:16 | 37.81033 | -117.64355 | 35995 ft | 443 kts | 336° |
| 2026-05-05 15:17 | 37.86501 | -117.67936 | 35994 ft | 442 kts | 336° |
| 2026-05-05 15:17 | 37.91958 | -117.71512 | 35993 ft | 441 kts | 336° |
| 2026-05-05 15:18 | 37.97399 | -117.75100 | 35997 ft | 441 kts | 336° |
| 2026-05-05 15:18 | 38.02444 | -117.79550 | 36001 ft | 448 kts | 320° |
| 2026-05-05 15:19 | 38.06954 | -117.84988 | 36002 ft | 448 kts | 321° |
| 2026-05-05 15:19 | 38.11449 | -117.90385 | 35998 ft | 447 kts | 321° |
| 2026-05-05 15:20 | 38.16007 | -117.95848 | 35998 ft | 447 kts | 321° |
| 2026-05-05 15:20 | 38.20503 | -118.01249 | 35997 ft | 447 kts | 321° |
| 2026-05-05 15:21 | 38.25017 | -118.06706 | 36001 ft | 448 kts | 321° |
| 2026-05-05 15:21 | 38.29523 | -118.12166 | 35994 ft | 448 kts | 321° |
| 2026-05-05 15:22 | 38.34029 | -118.17627 | 36001 ft | 447 kts | 321° |
| 2026-05-05 15:22 | 38.38536 | -118.23098 | 36002 ft | 447 kts | 321° |
| 2026-05-05 15:23 | 38.43039 | -118.28568 | 36000 ft | 447 kts | 321° |
| 2026-05-05 15:23 | 38.47538 | -118.34041 | 36003 ft | 447 kts | 321° |
| 2026-05-05 15:24 | 38.52030 | -118.39526 | 36006 ft | 447 kts | 321° |
| 2026-05-05 15:24 | 38.56523 | -118.45020 | 36006 ft | 447 kts | 321° |
| 2026-05-05 15:25 | 38.61010 | -118.50515 | 36010 ft | 447 kts | 322° |
| 2026-05-05 15:25 | 38.65491 | -118.56013 | 36005 ft | 446 kts | 322° |
| 2026-05-05 15:26 | 38.69975 | -118.61514 | 36004 ft | 446 kts | 322° |
| 2026-05-05 15:26 | 38.74449 | -118.67019 | 36003 ft | 446 kts | 322° |
| 2026-05-05 15:27 | 38.78917 | -118.72540 | 36004 ft | 446 kts | 322° |
| 2026-05-05 15:27 | 38.83384 | -118.78063 | 36009 ft | 446 kts | 322° |
| 2026-05-05 15:28 | 38.87845 | -118.83589 | 36006 ft | 446 kts | 322° |
| 2026-05-05 15:28 | 38.92304 | -118.89115 | 36011 ft | 445 kts | 322° |
| 2026-05-05 15:29 | 38.96757 | -118.94653 | 36006 ft | 444 kts | 322° |
| 2026-05-05 15:29 | 39.01170 | -119.00148 | 36008 ft | 445 kts | 322° |
| 2026-05-05 15:30 | 39.05640 | -119.05724 | 36010 ft | 445 kts | 323° |
| 2026-05-05 15:30 | 39.10059 | -119.11238 | 36012 ft | 445 kts | 323° |
| 2026-05-05 15:31 | 39.14504 | -119.16790 | 36014 ft | 445 kts | 323° |
| 2026-05-05 15:31 | 39.18939 | -119.22356 | 36014 ft | 445 kts | 323° |
| 2026-05-05 15:32 | 39.23365 | -119.27933 | 36015 ft | 445 kts | 323° |
| 2026-05-05 15:32 | 39.27788 | -119.33509 | 36015 ft | 445 kts | 323° |
| 2026-05-05 15:33 | 39.32212 | -119.39081 | 36016 ft | 444 kts | 323° |
| 2026-05-05 15:33 | 39.36636 | -119.44660 | 36017 ft | 444 kts | 323° |
| 2026-05-05 15:34 | 39.41047 | -119.50248 | 36018 ft | 444 kts | 323° |
| 2026-05-05 15:34 | 39.45363 | -119.55718 | 36016 ft | 444 kts | 323° |
| 2026-05-05 15:35 | 39.49773 | -119.61309 | 36015 ft | 442 kts | 325° |
| 2026-05-05 15:35 | 39.52153 | -119.63755 | 36014 ft | 431 kts | 335° |
| 2026-05-05 15:35 | 39.54750 | -119.65582 | 36010 ft | 421 kts | 345° |
| 2026-05-05 15:36 | 39.60279 | -119.67582 | 36005 ft | 410 kts | 355° |
| 2026-05-05 15:36 | 39.65861 | -119.69111 | 36000 ft | 410 kts | 355° |
| 2026-05-05 15:37 | 39.71450 | -119.70649 | 36009 ft | 410 kts | 355° |
| 2026-05-05 15:37 | 39.77037 | -119.72196 | 36014 ft | 410 kts | 355° |
| 2026-05-05 15:38 | 39.82614 | -119.73741 | 36020 ft | 410 kts | 355° |
| 2026-05-05 15:38 | 39.88193 | -119.75286 | 36023 ft | 410 kts | 355° |
| 2026-05-05 15:39 | 39.93769 | -119.76830 | 36022 ft | 409 kts | 355° |
| 2026-05-05 15:39 | 39.99337 | -119.78381 | 36016 ft | 409 kts | 355° |
| 2026-05-05 15:40 | 40.04901 | -119.79929 | 36016 ft | 409 kts | 355° |
| 2026-05-05 15:40 | 40.10460 | -119.81478 | 36017 ft | 409 kts | 355° |
| 2026-05-05 15:41 | 40.16024 | -119.83042 | 36015 ft | 409 kts | 355° |
| 2026-05-05 15:41 | 40.21580 | -119.84600 | 36013 ft | 408 kts | 355° |
| 2026-05-05 15:42 | 40.27131 | -119.86151 | 36006 ft | 408 kts | 355° |
| 2026-05-05 15:42 | 40.32687 | -119.87705 | 36005 ft | 408 kts | 355° |
| 2026-05-05 15:43 | 40.38236 | -119.89269 | 36006 ft | 408 kts | 355° |
| 2026-05-05 15:43 | 40.43780 | -119.90836 | 36009 ft | 408 kts | 355° |
| 2026-05-05 15:44 | 40.49325 | -119.92402 | 36009 ft | 407 kts | 355° |
| 2026-05-05 15:44 | 40.54872 | -119.93959 | 36008 ft | 407 kts | 355° |
| 2026-05-05 15:45 | 40.60402 | -119.95523 | 36010 ft | 407 kts | 355° |
| 2026-05-05 15:45 | 40.65938 | -119.97103 | 36011 ft | 407 kts | 354° |
| 2026-05-05 15:46 | 40.71467 | -119.98674 | 36013 ft | 406 kts | 355° |
| 2026-05-05 15:46 | 40.76997 | -120.00247 | 36011 ft | 406 kts | 355° |
| 2026-05-05 15:47 | 40.82520 | -120.01822 | 36012 ft | 406 kts | 355° |
| 2026-05-05 15:47 | 40.88036 | -120.03396 | 36013 ft | 406 kts | 355° |
| 2026-05-05 15:48 | 40.93550 | -120.04974 | 36011 ft | 405 kts | 355° |
| 2026-05-05 15:48 | 40.99019 | -120.06538 | 36015 ft | 405 kts | 355° |
| 2026-05-05 15:49 | 41.04560 | -120.08136 | 36017 ft | 404 kts | 355° |
| 2026-05-05 15:49 | 41.10057 | -120.09722 | 36021 ft | 404 kts | 355° |
| 2026-05-05 15:50 | 41.15545 | -120.11310 | 36027 ft | 403 kts | 355° |
| 2026-05-05 15:50 | 41.20988 | -120.12878 | 36028 ft | 403 kts | 354° |
| 2026-05-05 15:51 | 41.26463 | -120.14461 | 36030 ft | 403 kts | 355° |
| 2026-05-05 15:51 | 41.31934 | -120.16046 | 36028 ft | 402 kts | 355° |
| 2026-05-05 15:52 | 41.37404 | -120.17626 | 36031 ft | 402 kts | 355° |
| 2026-05-05 15:52 | 41.42875 | -120.19214 | 36036 ft | 402 kts | 355° |
| 2026-05-05 15:53 | 41.48333 | -120.20809 | 36040 ft | 401 kts | 354° |
| 2026-05-05 15:53 | 41.53791 | -120.22402 | 36040 ft | 401 kts | 354° |
| 2026-05-05 15:54 | 41.59242 | -120.23993 | 36038 ft | 401 kts | 354° |
| 2026-05-05 15:54 | 41.64694 | -120.25588 | 36033 ft | 401 kts | 354° |
| 2026-05-05 15:55 | 41.70135 | -120.27183 | 36036 ft | 401 kts | 354° |
| 2026-05-05 15:55 | 41.75580 | -120.28780 | 36041 ft | 400 kts | 354° |
| 2026-05-05 15:56 | 41.81016 | -120.30377 | 36051 ft | 400 kts | 354° |
| 2026-05-05 15:56 | 41.86452 | -120.31987 | 36038 ft | 400 kts | 354° |
| 2026-05-05 15:57 | 41.91879 | -120.33589 | 36034 ft | 399 kts | 354° |
| 2026-05-05 15:57 | 41.97296 | -120.35196 | 36030 ft | 399 kts | 354° |
| 2026-05-05 15:58 | 42.02722 | -120.36809 | 36031 ft | 399 kts | 354° |
| 2026-05-05 15:58 | 42.08142 | -120.38415 | 36031 ft | 399 kts | 354° |
| 2026-05-05 15:59 | 42.13563 | -120.40021 | 36034 ft | 399 kts | 354° |
| 2026-05-05 15:59 | 42.18981 | -120.41631 | 36035 ft | 399 kts | 354° |
| 2026-05-05 16:00 | 42.24403 | -120.43244 | 36050 ft | 399 kts | 354° |
| 2026-05-05 16:00 | 42.29825 | -120.44867 | 36036 ft | 399 kts | 354° |
| 2026-05-05 16:01 | 42.34323 | -120.46227 | 36045 ft | 399 kts | 354° |
| 2026-05-05 16:01 | 42.39742 | -120.47851 | 36036 ft | 399 kts | 354° |
| 2026-05-05 16:02 | 42.45157 | -120.49470 | 36036 ft | 399 kts | 354° |
| 2026-05-05 16:02 | 42.50563 | -120.51102 | 36035 ft | 399 kts | 353° |
| 2026-05-05 16:03 | 42.55971 | -120.52878 | 36034 ft | 400 kts | 352° |
| 2026-05-05 16:03 | 42.61367 | -120.54735 | 36030 ft | 400 kts | 352° |
| 2026-05-05 16:04 | 42.66756 | -120.56566 | 36033 ft | 400 kts | 352° |
| 2026-05-05 16:04 | 42.72157 | -120.58384 | 36033 ft | 400 kts | 352° |
| 2026-05-05 16:05 | 42.77551 | -120.60200 | 36034 ft | 399 kts | 352° |
| 2026-05-05 16:05 | 42.82944 | -120.62015 | 36033 ft | 399 kts | 352° |
| 2026-05-05 16:06 | 42.88341 | -120.63831 | 36036 ft | 399 kts | 352° |
| 2026-05-05 16:06 | 42.93740 | -120.65653 | 36033 ft | 399 kts | 352° |
| 2026-05-05 16:07 | 42.99129 | -120.67495 | 36034 ft | 399 kts | 352° |
| 2026-05-05 16:07 | 43.04517 | -120.69336 | 36033 ft | 399 kts | 352° |
| 2026-05-05 16:08 | 43.09899 | -120.71168 | 36033 ft | 399 kts | 352° |
| 2026-05-05 16:08 | 43.15280 | -120.73002 | 36036 ft | 399 kts | 351° |
| 2026-05-05 16:09 | 43.20654 | -120.74846 | 36036 ft | 398 kts | 352° |
| 2026-05-05 16:09 | 43.26035 | -120.76678 | 36035 ft | 398 kts | 352° |
| 2026-05-05 16:10 | 43.31373 | -120.78500 | 36033 ft | 398 kts | 351° |
| 2026-05-05 16:10 | 43.36742 | -120.80346 | 36031 ft | 398 kts | 351° |
| 2026-05-05 16:11 | 43.42108 | -120.82201 | 36033 ft | 398 kts | 351° |
| 2026-05-05 16:12 | 43.52835 | -120.85897 | 36033 ft | 397 kts | 351° |
| 2026-05-05 16:13 | 43.66226 | -120.90539 | 36034 ft | 397 kts | 351° |
| 2026-05-05 16:13 | 43.71579 | -120.92401 | 36033 ft | 397 kts | 351° |
| 2026-05-05 16:14 | 43.82284 | -120.96130 | 36035 ft | 397 kts | 351° |
| 2026-05-05 16:15 | 43.92987 | -120.99875 | 36034 ft | 397 kts | 351° |
| 2026-05-05 16:16 | 44.03700 | -121.03654 | 36029 ft | 397 kts | 350° |
| 2026-05-05 16:17 | 44.11725 | -121.06479 | 36049 ft | 396 kts | 350° |
| 2026-05-05 16:18 | 44.19742 | -121.09313 | 36036 ft | 396 kts | 350° |
| 2026-05-05 16:19 | 44.27761 | -121.12153 | 36030 ft | 396 kts | 350° |
| 2026-05-05 16:19 | 44.35777 | -121.14996 | 36028 ft | 396 kts | 349° |
| 2026-05-05 16:20 | 44.46419 | -121.18784 | 36021 ft | 396 kts | 349° |
| 2026-05-05 16:22 | 44.59769 | -121.23574 | 36024 ft | 396 kts | 349° |
| 2026-05-05 16:23 | 44.70451 | -121.27415 | 36028 ft | 396 kts | 349° |
| 2026-05-05 16:23 | 44.78457 | -121.30306 | 36027 ft | 396 kts | 349° |
| 2026-05-05 16:24 | 44.83794 | -121.32244 | 36025 ft | 396 kts | 349° |
| 2026-05-05 16:25 | 44.91809 | -121.35142 | 36025 ft | 396 kts | 349° |
| 2026-05-05 16:25 | 44.99814 | -121.38055 | 36023 ft | 396 kts | 349° |
| 2026-05-05 16:26 | 45.10497 | -121.41946 | 36021 ft | 396 kts | 348° |
| 2026-05-05 16:27 | 45.15842 | -121.43912 | 36018 ft | 397 kts | 348° |
| 2026-05-05 16:27 | 45.21185 | -121.45874 | 36018 ft | 397 kts | 348° |
| 2026-05-05 16:28 | 45.26535 | -121.47828 | 36016 ft | 397 kts | 348° |
| 2026-05-05 16:28 | 45.31880 | -121.49787 | 36007 ft | 397 kts | 348° |
| 2026-05-05 16:29 | 45.37229 | -121.51759 | 36003 ft | 397 kts | 348° |
| 2026-05-05 16:29 | 45.42576 | -121.53741 | 36002 ft | 397 kts | 348° |
| 2026-05-05 16:30 | 45.47920 | -121.55722 | 36004 ft | 397 kts | 348° |
| 2026-05-05 16:30 | 45.53268 | -121.57705 | 36004 ft | 397 kts | 348° |
| 2026-05-05 16:31 | 45.58583 | -121.59683 | 36004 ft | 397 kts | 348° |
| 2026-05-05 16:31 | 45.63937 | -121.61684 | 36008 ft | 398 kts | 348° |
| 2026-05-05 16:32 | 45.69298 | -121.63682 | 36005 ft | 398 kts | 348° |
| 2026-05-05 16:32 | 45.74648 | -121.65677 | 36002 ft | 398 kts | 348° |
| 2026-05-05 16:33 | 45.80005 | -121.67690 | 36001 ft | 398 kts | 347° |
| 2026-05-05 16:33 | 45.85357 | -121.69708 | 36001 ft | 398 kts | 347° |
| 2026-05-05 16:34 | 45.90712 | -121.71725 | 36005 ft | 399 kts | 347° |
| 2026-05-05 16:34 | 45.96082 | -121.73734 | 36010 ft | 398 kts | 347° |
| 2026-05-05 16:35 | 46.01444 | -121.75755 | 36012 ft | 398 kts | 347° |
| 2026-05-05 16:35 | 46.06808 | -121.77786 | 36024 ft | 399 kts | 347° |
| 2026-05-05 16:36 | 46.12174 | -121.79821 | 36032 ft | 399 kts | 347° |
| 2026-05-05 16:36 | 46.17540 | -121.81860 | 36037 ft | 398 kts | 347° |
| 2026-05-05 16:37 | 46.22898 | -121.83899 | 36039 ft | 398 kts | 347° |
| 2026-05-05 16:37 | 46.28261 | -121.85948 | 36066 ft | 399 kts | 347° |
| 2026-05-05 16:38 | 46.33211 | -121.87847 | 36059 ft | 399 kts | 347° |
| 2026-05-05 16:38 | 46.38421 | -121.89838 | 36060 ft | 398 kts | 347° |
| 2026-05-05 16:39 | 46.43778 | -121.91891 | 36060 ft | 398 kts | 347° |
| 2026-05-05 16:39 | 46.49142 | -121.93959 | 36056 ft | 398 kts | 347° |
| 2026-05-05 16:40 | 46.54500 | -121.96020 | 36059 ft | 398 kts | 347° |
| 2026-05-05 16:40 | 46.59850 | -121.98081 | 36069 ft | 398 kts | 347° |
| 2026-05-05 16:41 | 46.65165 | -122.00129 | 36073 ft | 398 kts | 347° |
| 2026-05-05 16:41 | 46.70515 | -122.02208 | 36069 ft | 398 kts | 347° |
| 2026-05-05 16:42 | 46.75863 | -122.04281 | 36064 ft | 399 kts | 346° |
| 2026-05-05 16:42 | 46.81235 | -122.06370 | 36073 ft | 399 kts | 347° |
| 2026-05-05 16:43 | 46.86602 | -122.08468 | 36074 ft | 399 kts | 346° |
| 2026-05-05 16:43 | 46.91974 | -122.10579 | 36075 ft | 399 kts | 346° |
| 2026-05-05 16:44 | 46.97338 | -122.12684 | 36078 ft | 399 kts | 346° |
| 2026-05-05 16:44 | 47.02708 | -122.14787 | 36081 ft | 399 kts | 346° |
| 2026-05-05 16:45 | 47.08072 | -122.16896 | 36080 ft | 399 kts | 346° |
| 2026-05-05 16:45 | 47.13432 | -122.19007 | 36082 ft | 399 kts | 346° |
| 2026-05-05 16:46 | 47.18797 | -122.21119 | 36087 ft | 399 kts | 346° |
| 2026-05-05 16:46 | 47.24150 | -122.23235 | 36092 ft | 399 kts | 346° |
| 2026-05-05 16:47 | 47.29510 | -122.25367 | 36091 ft | 398 kts | 346° |
| 2026-05-05 16:47 | 47.34859 | -122.27501 | 36087 ft | 398 kts | 346° |
| 2026-05-05 16:48 | 47.39337 | -122.29296 | 36088 ft | 398 kts | 346° |
| 2026-05-05 16:48 | 47.44719 | -122.30826 | 36082 ft | 397 kts | 358° |
| 2026-05-05 16:49 | 47.47517 | -122.30710 | 35927 ft | 396 kts | 1° |
| 2026-05-05 16:49 | 47.50273 | -122.30520 | 35265 ft | 397 kts | 1° |
| 2026-05-05 16:49 | 47.53004 | -122.30342 | 34557 ft | 399 kts | 1° |
| 2026-05-05 16:49 | 47.55786 | -122.30162 | 33837 ft | 402 kts | 1° |
| 2026-05-05 16:50 | 47.58589 | -122.29981 | 33073 ft | 404 kts | 1° |
| 2026-05-05 16:50 | 47.61403 | -122.29804 | 32310 ft | 407 kts | 1° |
| 2026-05-05 16:50 | 47.64241 | -122.29624 | 31539 ft | 409 kts | 1° |
| 2026-05-05 16:50 | 47.67080 | -122.29437 | 30877 ft | 408 kts | 1° |
| 2026-05-05 16:51 | 47.69915 | -122.29245 | 30326 ft | 405 kts | 2° |
| 2026-05-05 16:51 | 47.72719 | -122.29055 | 29762 ft | 401 kts | 1° |
| 2026-05-05 16:51 | 47.75482 | -122.28868 | 29202 ft | 398 kts | 1° |
| 2026-05-05 16:51 | 47.78245 | -122.28685 | 28646 ft | 395 kts | 1° |
| 2026-05-05 16:52 | 47.80972 | -122.28508 | 28082 ft | 391 kts | 1° |
| 2026-05-05 16:52 | 47.83688 | -122.28331 | 27528 ft | 388 kts | 1° |
| 2026-05-05 16:52 | 47.86372 | -122.28154 | 26981 ft | 385 kts | 1° |
| 2026-05-05 16:52 | 47.89028 | -122.27977 | 26431 ft | 382 kts | 1° |
| 2026-05-05 16:53 | 47.91683 | -122.27906 | 25871 ft | 378 kts | 356° |
| 2026-05-05 16:53 | 47.94273 | -122.28439 | 25323 ft | 375 kts | 349° |
| 2026-05-05 16:53 | 47.96819 | -122.29185 | 24766 ft | 372 kts | 349° |
| 2026-05-05 16:53 | 47.99351 | -122.29920 | 24197 ft | 369 kts | 349° |
| 2026-05-05 16:54 | 48.01865 | -122.30645 | 23647 ft | 366 kts | 349° |
| 2026-05-05 16:54 | 48.04350 | -122.31360 | 23102 ft | 363 kts | 349° |
| 2026-05-05 16:54 | 48.06819 | -122.32070 | 22552 ft | 360 kts | 349° |
| 2026-05-05 16:54 | 48.09269 | -122.32777 | 21994 ft | 357 kts | 349° |
| 2026-05-05 16:55 | 48.11697 | -122.33480 | 21446 ft | 354 kts | 349° |
| 2026-05-05 16:55 | 48.14107 | -122.34180 | 20901 ft | 352 kts | 349° |
| 2026-05-05 16:55 | 48.16501 | -122.34875 | 20370 ft | 349 kts | 349° |
| 2026-05-05 16:55 | 48.18873 | -122.35564 | 19848 ft | 347 kts | 350° |
| 2026-05-05 16:56 | 48.21232 | -122.36253 | 19315 ft | 344 kts | 349° |
| 2026-05-05 16:56 | 48.23581 | -122.36939 | 18793 ft | 342 kts | 349° |
| 2026-05-05 16:56 | 48.25913 | -122.37618 | 18278 ft | 340 kts | 350° |
| 2026-05-05 16:56 | 48.28227 | -122.38292 | 17766 ft | 338 kts | 350° |
| 2026-05-05 16:57 | 48.30526 | -122.38964 | 17259 ft | 336 kts | 350° |
| 2026-05-05 16:57 | 48.32811 | -122.39632 | 16753 ft | 334 kts | 349° |
| 2026-05-05 16:57 | 48.35093 | -122.40302 | 16225 ft | 334 kts | 349° |
| 2026-05-05 16:57 | 48.37364 | -122.40972 | 15706 ft | 333 kts | 349° |
| 2026-05-05 16:58 | 48.39635 | -122.41643 | 15192 ft | 332 kts | 349° |
| 2026-05-05 16:58 | 48.41897 | -122.42312 | 14680 ft | 331 kts | 349° |
| 2026-05-05 16:58 | 48.44149 | -122.42973 | 14176 ft | 330 kts | 349° |
| 2026-05-05 16:58 | 48.45939 | -122.43498 | 13779 ft | 329 kts | 349° |
| 2026-05-05 16:59 | 48.48064 | -122.44118 | 13296 ft | 329 kts | 349° |
| 2026-05-05 16:59 | 48.50301 | -122.44772 | 12809 ft | 327 kts | 349° |
| 2026-05-05 16:59 | 48.52540 | -122.45430 | 12318 ft | 327 kts | 349° |
| 2026-05-05 16:59 | 48.54765 | -122.46083 | 11831 ft | 326 kts | 349° |
| 2026-05-05 17:00 | 48.56985 | -122.46735 | 11328 ft | 325 kts | 349° |
| 2026-05-05 17:00 | 48.59202 | -122.47390 | 10835 ft | 324 kts | 349° |
| 2026-05-05 17:00 | 48.61412 | -122.48049 | 10338 ft | 324 kts | 348° |
| 2026-05-05 17:00 | 48.63620 | -122.48708 | 10054 ft | 324 kts | 348° |
| 2026-05-05 17:01 | 48.65786 | -122.49352 | 10017 ft | 309 kts | 348° |
| 2026-05-05 17:01 | 48.67840 | -122.49962 | 10027 ft | 293 kts | 348° |
| 2026-05-05 17:01 | 48.69776 | -122.50776 | 10026 ft | 288 kts | 338° |
| 2026-05-05 17:01 | 48.71562 | -122.52151 | 10029 ft | 287 kts | 327° |
| 2026-05-05 17:02 | 48.73121 | -122.54031 | 10026 ft | 288 kts | 315° |
| 2026-05-05 17:02 | 48.74505 | -122.56219 | 10027 ft | 288 kts | 314° |
| 2026-05-05 17:02 | 48.75891 | -122.58414 | 10028 ft | 288 kts | 314° |
| 2026-05-05 17:02 | 48.77271 | -122.60596 | 10027 ft | 288 kts | 314° |
| 2026-05-05 17:03 | 48.78666 | -122.62797 | 10031 ft | 288 kts | 314° |
| 2026-05-05 17:03 | 48.80051 | -122.64978 | 10027 ft | 288 kts | 314° |
| 2026-05-05 17:03 | 48.81442 | -122.67165 | 10029 ft | 288 kts | 314° |
| 2026-05-05 17:03 | 48.82832 | -122.69359 | 10027 ft | 288 kts | 314° |
| 2026-05-05 17:04 | 48.84210 | -122.71540 | 10030 ft | 288 kts | 314° |
| 2026-05-05 17:04 | 48.85598 | -122.73745 | 10026 ft | 288 kts | 314° |
| 2026-05-05 17:04 | 48.86983 | -122.75946 | 10027 ft | 287 kts | 314° |
| 2026-05-05 17:04 | 48.88324 | -122.78087 | 10024 ft | 272 kts | 314° |
| 2026-05-05 17:05 | 48.89606 | -122.80137 | 10025 ft | 266 kts | 314° |
| 2026-05-05 17:05 | 48.90879 | -122.82175 | 10025 ft | 265 kts | 314° |
| 2026-05-05 17:05 | 48.92146 | -122.84198 | 10023 ft | 265 kts | 314° |
| 2026-05-05 17:05 | 48.93419 | -122.86229 | 10024 ft | 265 kts | 314° |
| 2026-05-05 17:06 | 48.94690 | -122.88253 | 10024 ft | 265 kts | 314° |
| 2026-05-05 17:06 | 48.95965 | -122.90281 | 10020 ft | 265 kts | 314° |
| 2026-05-05 17:06 | 48.97237 | -122.92308 | 10018 ft | 265 kts | 314° |
| 2026-05-05 17:06 | 48.98506 | -122.94334 | 10025 ft | 265 kts | 314° |
| 2026-05-05 17:07 | 48.99773 | -122.96362 | 10021 ft | 265 kts | 314° |
| 2026-05-05 17:07 | 49.01044 | -122.98398 | 10023 ft | 265 kts | 314° |
| 2026-05-05 17:07 | 49.02316 | -123.00437 | 10018 ft | 265 kts | 314° |
| 2026-05-05 17:07 | 49.03579 | -123.02467 | 10026 ft | 264 kts | 314° |
| 2026-05-05 17:08 | 49.04817 | -123.04460 | 10021 ft | 256 kts | 313° |
| 2026-05-05 17:08 | 49.05848 | -123.06638 | 10018 ft | 254 kts | 297° |
| 2026-05-05 17:08 | 49.06507 | -123.08885 | 10009 ft | 255 kts | 294° |
| 2026-05-05 17:08 | 49.07220 | -123.11359 | 10010 ft | 255 kts | 295° |
| 2026-05-05 17:09 | 49.07939 | -123.13827 | 10008 ft | 255 kts | 295° |
| 2026-05-05 17:09 | 49.08662 | -123.16296 | 10009 ft | 255 kts | 295° |
| 2026-05-05 17:09 | 49.09377 | -123.18769 | 10010 ft | 255 kts | 291° |
| 2026-05-05 17:09 | 49.09789 | -123.21390 | 10016 ft | 256 kts | 281° |
| 2026-05-05 17:10 | 49.10087 | -123.24056 | 10011 ft | 251 kts | 281° |
| 2026-05-05 17:10 | 49.10380 | -123.26659 | 9950 ft | 248 kts | 281° |
| 2026-05-05 17:10 | 49.10672 | -123.29240 | 9465 ft | 247 kts | 281° |
| 2026-05-05 17:10 | 49.10961 | -123.31774 | 8912 ft | 244 kts | 281° |
| 2026-05-05 17:11 | 49.11255 | -123.34351 | 8340 ft | 242 kts | 280° |
| 2026-05-05 17:11 | 49.11563 | -123.36857 | 7763 ft | 239 kts | 287° |
| 2026-05-05 17:11 | 49.12350 | -123.39036 | 6976 ft | 244 kts | 310° |
| 2026-05-05 17:11 | 49.13553 | -123.41004 | 5985 ft | 257 kts | 315° |
| 2026-05-05 17:12 | 49.14907 | -123.42865 | 4991 ft | 265 kts | 329° |
| 2026-05-05 17:12 | 49.16659 | -123.43733 | 4089 ft | 269 kts | 358° |
| 2026-05-05 17:12 | 49.18473 | -123.43261 | 3299 ft | 267 kts | 25° |
| 2026-05-05 17:12 | 49.19916 | -123.41595 | 2691 ft | 258 kts | 52° |
| 2026-05-05 17:13 | 49.20692 | -123.39236 | 2405 ft | 239 kts | 76° |
| 2026-05-05 17:13 | 49.20808 | -123.36869 | 2146 ft | 209 kts | 95° |
| 2026-05-05 17:13 | 49.20587 | -123.34833 | 1902 ft | 180 kts | 99° |
| 2026-05-05 17:13 | 49.20395 | -123.33098 | 1674 ft | 153 kts | 99° |
| 2026-05-05 17:14 | 49.20223 | -123.31564 | 1470 ft | 142 kts | 100° |
| 2026-05-05 17:14 | 49.20061 | -123.30113 | 1289 ft | 136 kts | 101° |
| 2026-05-05 17:14 | 49.19902 | -123.28700 | 1103 ft | 133 kts | 101° |
| 2026-05-05 17:14 | 49.19744 | -123.27311 | 949 ft | 132 kts | 101° |
| 2026-05-05 17:15 | 49.19593 | -123.25930 | 788 ft | 132 kts | 100° |
| 2026-05-05 17:15 | 49.19438 | -123.24550 | 592 ft | 131 kts | 101° |
| 2026-05-05 17:15 | 49.19282 | -123.23180 | 412 ft | 131 kts | 99° |
| 2026-05-05 17:15 | 49.19127 | -123.21800 | 234 ft | 132 kts | 100° |
| 2026-05-05 17:16 | 49.18966 | -123.20423 | 44 ft | 131 kts | 101° |
| 2026-05-05 17:16 | 49.18820 | -123.19165 | 23 ft | 103 kts | 99° |
| 2026-05-05 17:16 | 49.18732 | -123.18376 | 22 ft | 49 kts | 99° |
| 2026-05-05 17:16 | 49.18690 | -123.17992 | 24 ft | 34 kts | 99° |
| 2026-05-05 17:17 | 49.18678 | -123.17635 | 26 ft | 33 kts | 81° |
| 2026-05-05 17:17 | 49.18738 | -123.17340 | 23 ft | 18 kts | 67° |
| 2026-05-05 17:17 | 49.18816 | -123.17302 | 23 ft | 8 kts | 304° |
| 2026-05-05 17:17 | 49.18837 | -123.17411 | 23 ft | 13 kts | 277° |
| 2026-05-05 17:18 | 49.18851 | -123.17546 | 24 ft | 14 kts | 280° |
| 2026-05-05 17:18 | 49.18871 | -123.17710 | 23 ft | 17 kts | 279° |
| 2026-05-05 17:18 | 49.18891 | -123.17888 | 23 ft | 17 kts | 280° |
| 2026-05-05 17:18 | 49.18908 | -123.18061 | 24 ft | 16 kts | 278° |
| 2026-05-05 17:19 | 49.18925 | -123.18221 | 23 ft | 14 kts | 280° |
| 2026-05-05 17:19 | 49.18941 | -123.18353 | 23 ft | 12 kts | 281° |
| 2026-05-05 17:19 | 49.18976 | -123.18481 | 24 ft | 13 kts | 319° |
| 2026-05-05 17:19 | 49.19042 | -123.18559 | 25 ft | 14 kts | 321° |
| 2026-05-05 17:20 | 49.19133 | -123.18666 | 23 ft | 16 kts | 322° |
| 2026-05-05 17:20 | 49.19197 | -123.18732 | 23 ft | 11 kts | 344° |
| 2026-05-05 17:20 | 49.19300 | -123.18709 | 25 ft | 18 kts | 14° |
| 2026-05-05 17:20 | 49.19414 | -123.18713 | 25 ft | 16 kts | 336° |
| 2026-05-05 17:21 | 49.19517 | -123.18714 | 25 ft | 15 kts | 13° |
| 2026-05-05 17:21 | 49.19612 | -123.18686 | 23 ft | 13 kts | 10° |
| 2026-05-05 17:21 | 49.19711 | -123.18643 | 23 ft | 16 kts | 32° |
| 2026-05-05 17:22 | 49.19762 | -123.18417 | 23 ft | 12 kts | 101° |
| 2026-05-05 17:22 | 49.19748 | -123.18302 | 23 ft | 10 kts | 101° |
| 2026-05-05 17:22 | 49.19737 | -123.18216 | 25 ft | 7 kts | 104° |
| 2026-05-05 17:22 | 49.19717 | -123.18156 | 23 ft | 6 kts | 123° |
| 2026-05-05 17:23 | 49.19699 | -123.18123 | 23 ft | 2 kts | 133° |
| 2026-05-05 17:23 | 49.19683 | -123.18098 | 25 ft | 6 kts | 133° |
| 2026-05-05 17:23 | 49.19680 | -123.18062 | 23 ft | 2 kts | 82° |
| 2026-05-05 17:23 | 49.19684 | -123.18057 | 26 ft | 0 kts | 44° |
| 2026-05-05 17:24 | 49.19701 | -123.18039 | 24 ft | 6 kts | 37° |
| 2026-05-05 17:24 | 49.19722 | -123.18014 | 23 ft | 0 kts | 38° |
| 2026-05-05 17:24 | 49.19732 | -123.18002 | 25 ft | 2 kts | 38° |
| 2026-05-05 17:24 | 49.19737 | -123.17996 | 23 ft | 0 kts | 38° |
| 2026-05-05 17:25 | 49.19739 | -123.17994 | 23 ft | 0 kts | 38° |